sensor_id;sensor_type;location;lat;lon;timestamp;temperature;humidity
14057;DHT22;7103;54.300;10.180;2023-04-01T00:01:23;8.70;1.00
14057;DHT22;7103;54.300;10.180;2023-04-01T00:03:50;8.60;1.00
14057;DHT22;7103;54.300;10.180;2023-04-01T00:06:18;8.50;1.00
14057;DHT22;7103;54.300;10.180;2023-04-01T00:08:45;8.50;1.00
14057;DHT22;7103;54.300;10.180;2023-04-01T00:11:13;8.60;1.00
14057;DHT22;7103;54.300;10.180;2023-04-01T00:13:42;8.60;1.00
14057;DHT22;7103;54.300;10.180;2023-04-01T00:16:09;8.40;1.00
14057;DHT22;7103;54.300;10.180;2023-04-01T00:18:48;8.30;1.00
14057;DHT22;7103;54.300;10.180;2023-04-01T00:21:16;8.20;1.00
14057;DHT22;7103;54.300;10.180;2023-04-01T00:23:43;8.30;1.00
14057;DHT22;7103;54.300;10.180;2023-04-01T00:26:10;8.20;1.00
14057;DHT22;7103;54.300;10.180;2023-04-01T00:28:39;8.20;1.00
14057;DHT22;7103;54.300;10.180;2023-04-01T00:31:07;8.30;1.00
14057;DHT22;7103;54.300;10.180;2023-04-01T00:33:35;8.30;1.00
14057;DHT22;7103;54.300;10.180;2023-04-01T00:36:12;8.20;1.00
14057;DHT22;7103;54.300;10.180;2023-04-01T00:38:40;8.20;1.00
14057;DHT22;7103;54.300;10.180;2023-04-01T00:41:08;8.20;1.00
14057;DHT22;7103;54.300;10.180;2023-04-01T00:43:36;8.10;1.00
14057;DHT22;7103;54.300;10.180;2023-04-01T00:46:03;8.10;1.00
14057;DHT22;7103;54.300;10.180;2023-04-01T00:48:35;8.10;1.00
14057;DHT22;7103;54.300;10.180;2023-04-01T00:51:12;7.90;1.00
14057;DHT22;7103;54.300;10.180;2023-04-01T00:53:47;8.00;1.00
14057;DHT22;7103;54.300;10.180;2023-04-01T00:56:21;7.90;1.00
14057;DHT22;7103;54.300;10.180;2023-04-01T00:58:54;7.90;1.00
14057;DHT22;7103;54.300;10.180;2023-04-01T01:01:23;7.80;1.00
14057;DHT22;7103;54.300;10.180;2023-04-01T01:03:50;7.90;1.00
14057;DHT22;7103;54.300;10.180;2023-04-01T01:23:11;7.60;1.00
14057;DHT22;7103;54.300;10.180;2023-04-01T01:26:11;7.60;1.00
14057;DHT22;7103;54.300;10.180;2023-04-01T01:35:05;7.50;1.00
14057;DHT22;7103;54.300;10.180;2023-04-01T01:37:33;7.30;1.00
14057;DHT22;7103;54.300;10.180;2023-04-01T01:40:03;7.40;1.00
14057;DHT22;7103;54.300;10.180;2023-04-01T01:42:34;7.30;1.00
14057;DHT22;7103;54.300;10.180;2023-04-01T01:45:04;7.30;1.00
14057;DHT22;7103;54.300;10.180;2023-04-01T01:47:33;7.30;1.00
14057;DHT22;7103;54.300;10.180;2023-04-01T01:50:02;7.20;1.00
14057;DHT22;7103;54.300;10.180;2023-04-01T01:52:31;7.20;1.00
14057;DHT22;7103;54.300;10.180;2023-04-01T01:54:58;7.30;1.00
14057;DHT22;7103;54.300;10.180;2023-04-01T01:57:36;7.20;1.00
14057;DHT22;7103;54.300;10.180;2023-04-01T02:00:08;7.40;1.00
14057;DHT22;7103;54.300;10.180;2023-04-01T02:02:41;7.20;1.00
14057;DHT22;7103;54.300;10.180;2023-04-01T02:05:11;7.10;1.00
14057;DHT22;7103;54.300;10.180;2023-04-01T02:07:46;7.20;1.00
14057;DHT22;7103;54.300;10.180;2023-04-01T02:10:15;7.20;1.00
14057;DHT22;7103;54.300;10.180;2023-04-01T02:12:45;7.10;1.00
14057;DHT22;7103;54.300;10.180;2023-04-01T02:15:14;7.00;1.00
14057;DHT22;7103;54.300;10.180;2023-04-01T02:17:45;6.80;1.00
14057;DHT22;7103;54.300;10.180;2023-04-01T02:20:16;6.90;1.00
14057;DHT22;7103;54.300;10.180;2023-04-01T02:22:50;6.90;1.00
14057;DHT22;7103;54.300;10.180;2023-04-01T02:25:20;6.80;1.00
14057;DHT22;7103;54.300;10.180;2023-04-01T02:27:49;6.80;1.00
14057;DHT22;7103;54.300;10.180;2023-04-01T02:30:17;6.80;1.00
14057;DHT22;7103;54.300;10.180;2023-04-01T02:32:45;6.80;1.00
14057;DHT22;7103;54.300;10.180;2023-04-01T02:35:14;6.80;1.00
14057;DHT22;7103;54.300;10.180;2023-04-01T02:37:43;6.80;1.00
14057;DHT22;7103;54.300;10.180;2023-04-01T02:40:15;6.80;1.00
14057;DHT22;7103;54.300;10.180;2023-04-01T02:42:42;6.70;1.00
14057;DHT22;7103;54.300;10.180;2023-04-01T02:45:10;6.70;1.00
14057;DHT22;7103;54.300;10.180;2023-04-01T02:47:37;6.70;1.00
14057;DHT22;7103;54.300;10.180;2023-04-01T02:50:05;6.60;1.00
14057;DHT22;7103;54.300;10.180;2023-04-01T02:52:32;6.60;1.00
14057;DHT22;7103;54.300;10.180;2023-04-01T02:55:00;6.50;1.00
14057;DHT22;7103;54.300;10.180;2023-04-01T02:57:26;6.60;1.00
14057;DHT22;7103;54.300;10.180;2023-04-01T02:59:53;6.50;1.00
14057;DHT22;7103;54.300;10.180;2023-04-01T03:02:21;6.50;1.00
14057;DHT22;7103;54.300;10.180;2023-04-01T03:04:48;6.40;1.00
14057;DHT22;7103;54.300;10.180;2023-04-01T03:07:15;6.40;1.00
14057;DHT22;7103;54.300;10.180;2023-04-01T03:09:42;6.40;1.00
14057;DHT22;7103;54.300;10.180;2023-04-01T03:12:08;6.30;1.00
14057;DHT22;7103;54.300;10.180;2023-04-01T03:14:35;6.30;1.00
14057;DHT22;7103;54.300;10.180;2023-04-01T03:17:02;6.30;1.00
14057;DHT22;7103;54.300;10.180;2023-04-01T03:19:29;6.30;1.00
14057;DHT22;7103;54.300;10.180;2023-04-01T03:21:56;6.50;1.00
14057;DHT22;7103;54.300;10.180;2023-04-01T03:24:23;6.20;1.00
14057;DHT22;7103;54.300;10.180;2023-04-01T03:26:50;6.20;1.00
14057;DHT22;7103;54.300;10.180;2023-04-01T03:29:16;6.20;1.00
14057;DHT22;7103;54.300;10.180;2023-04-01T03:31:43;6.20;1.00
14057;DHT22;7103;54.300;10.180;2023-04-01T03:34:11;6.20;1.00
14057;DHT22;7103;54.300;10.180;2023-04-01T03:36:38;6.30;1.00
14057;DHT22;7103;54.300;10.180;2023-04-01T03:39:04;6.30;1.00
14057;DHT22;7103;54.300;10.180;2023-04-01T03:41:32;6.20;1.00
14057;DHT22;7103;54.300;10.180;2023-04-01T03:43:59;6.20;1.00
14057;DHT22;7103;54.300;10.180;2023-04-01T03:46:26;6.30;1.00
14057;DHT22;7103;54.300;10.180;2023-04-01T03:48:53;6.20;1.00
14057;DHT22;7103;54.300;10.180;2023-04-01T03:51:20;6.20;1.00
14057;DHT22;7103;54.300;10.180;2023-04-01T03:53:47;6.10;1.00
14057;DHT22;7103;54.300;10.180;2023-04-01T03:56:14;6.00;1.00
14057;DHT22;7103;54.300;10.180;2023-04-01T03:58:41;6.10;1.00
14057;DHT22;7103;54.300;10.180;2023-04-01T04:01:19;6.00;1.00
14057;DHT22;7103;54.300;10.180;2023-04-01T04:03:50;6.00;1.00
14057;DHT22;7103;54.300;10.180;2023-04-01T04:06:18;6.00;1.00
14057;DHT22;7103;54.300;10.180;2023-04-01T04:08:45;6.40;1.00
14057;DHT22;7103;54.300;10.180;2023-04-01T04:11:13;5.90;1.00
14057;DHT22;7103;54.300;10.180;2023-04-01T04:13:41;5.90;1.00
14057;DHT22;7103;54.300;10.180;2023-04-01T04:16:08;5.90;1.00
14057;DHT22;7103;54.300;10.180;2023-04-01T04:18:36;6.00;1.00
14057;DHT22;7103;54.300;10.180;2023-04-01T04:21:04;5.90;1.00
14057;DHT22;7103;54.300;10.180;2023-04-01T04:23:31;6.00;1.00
14057;DHT22;7103;54.300;10.180;2023-04-01T04:26:03;5.90;1.00
14057;DHT22;7103;54.300;10.180;2023-04-01T04:28:31;5.90;1.00
14057;DHT22;7103;54.300;10.180;2023-04-01T04:30:58;5.90;1.00
14057;DHT22;7103;54.300;10.180;2023-04-01T04:33:26;5.90;1.00
14057;DHT22;7103;54.300;10.180;2023-04-01T04:35:56;5.90;1.00
14057;DHT22;7103;54.300;10.180;2023-04-01T04:38:24;5.90;1.00
14057;DHT22;7103;54.300;10.180;2023-04-01T04:40:52;5.90;1.00
14057;DHT22;7103;54.300;10.180;2023-04-01T04:43:19;5.80;1.00
14057;DHT22;7103;54.300;10.180;2023-04-01T04:45:46;5.80;1.00
14057;DHT22;7103;54.300;10.180;2023-04-01T04:48:15;5.80;1.00
14057;DHT22;7103;54.300;10.180;2023-04-01T04:50:50;6.00;1.00
14057;DHT22;7103;54.300;10.180;2023-04-01T04:53:18;5.80;1.00
14057;DHT22;7103;54.300;10.180;2023-04-01T04:55:49;5.80;1.00
14057;DHT22;7103;54.300;10.180;2023-04-01T04:58:17;5.70;1.00
14057;DHT22;7103;54.300;10.180;2023-04-01T05:00:44;5.70;1.00
14057;DHT22;7103;54.300;10.180;2023-04-01T05:03:12;5.70;1.00
14057;DHT22;7103;54.300;10.180;2023-04-01T05:05:40;5.70;1.00
14057;DHT22;7103;54.300;10.180;2023-04-01T05:08:14;5.70;1.00
14057;DHT22;7103;54.300;10.180;2023-04-01T05:10:41;5.70;1.00
14057;DHT22;7103;54.300;10.180;2023-04-01T05:13:07;5.80;1.00
14057;DHT22;7103;54.300;10.180;2023-04-01T05:15:35;5.70;1.00
14057;DHT22;7103;54.300;10.180;2023-04-01T05:18:02;5.60;1.00
14057;DHT22;7103;54.300;10.180;2023-04-01T05:20:29;5.60;1.00
14057;DHT22;7103;54.300;10.180;2023-04-01T05:22:57;5.80;1.00
14057;DHT22;7103;54.300;10.180;2023-04-01T05:25:24;5.70;1.00
14057;DHT22;7103;54.300;10.180;2023-04-01T05:27:51;5.70;1.00
14057;DHT22;7103;54.300;10.180;2023-04-01T05:30:18;5.60;1.00
14057;DHT22;7103;54.300;10.180;2023-04-01T05:32:45;5.70;1.00
14057;DHT22;7103;54.300;10.180;2023-04-01T05:35:12;5.70;1.00
14057;DHT22;7103;54.300;10.180;2023-04-01T05:37:39;5.70;1.00
14057;DHT22;7103;54.300;10.180;2023-04-01T05:40:06;5.60;1.00
14057;DHT22;7103;54.300;10.180;2023-04-01T05:42:33;5.70;1.00
14057;DHT22;7103;54.300;10.180;2023-04-01T05:45:04;5.80;1.00
14057;DHT22;7103;54.300;10.180;2023-04-01T05:47:31;5.70;1.00
14057;DHT22;7103;54.300;10.180;2023-04-01T05:49:58;5.70;1.00
14057;DHT22;7103;54.300;10.180;2023-04-01T05:52:25;5.90;1.00
14057;DHT22;7103;54.300;10.180;2023-04-01T05:54:52;5.70;1.00
14057;DHT22;7103;54.300;10.180;2023-04-01T05:57:18;5.70;1.00
14057;DHT22;7103;54.300;10.180;2023-04-01T05:59:46;5.80;1.00
14057;DHT22;7103;54.300;10.180;2023-04-01T06:02:13;5.80;1.00
14057;DHT22;7103;54.300;10.180;2023-04-01T06:04:43;5.80;1.00
14057;DHT22;7103;54.300;10.180;2023-04-01T06:07:14;5.70;1.00
14057;DHT22;7103;54.300;10.180;2023-04-01T06:09:42;5.70;1.00
14057;DHT22;7103;54.300;10.180;2023-04-01T06:17:49;5.60;1.00
14057;DHT22;7103;54.300;10.180;2023-04-01T06:26:17;5.70;1.00
14057;DHT22;7103;54.300;10.180;2023-04-01T06:37:08;5.80;1.00
14057;DHT22;7103;54.300;10.180;2023-04-01T06:42:20;5.80;1.00
14057;DHT22;7103;54.300;10.180;2023-04-01T06:44:56;5.80;1.00
14057;DHT22;7103;54.300;10.180;2023-04-01T06:47:45;5.80;1.00
14057;DHT22;7103;54.300;10.180;2023-04-01T06:56:08;5.80;1.00
14057;DHT22;7103;54.300;10.180;2023-04-01T07:01:10;5.70;1.00
14057;DHT22;7103;54.300;10.180;2023-04-01T07:03:59;5.70;1.00
14057;DHT22;7103;54.300;10.180;2023-04-01T07:06:42;5.80;1.00
14057;DHT22;7103;54.300;10.180;2023-04-01T07:09:22;5.80;1.00
14057;DHT22;7103;54.300;10.180;2023-04-01T07:11:53;5.80;1.00
14057;DHT22;7103;54.300;10.180;2023-04-01T07:14:32;5.80;1.00
14057;DHT22;7103;54.300;10.180;2023-04-01T07:25:04;6.00;1.00
14057;DHT22;7103;54.300;10.180;2023-04-01T07:27:32;5.70;1.00
14057;DHT22;7103;54.300;10.180;2023-04-01T07:30:01;5.90;1.00
14057;DHT22;7103;54.300;10.180;2023-04-01T07:32:47;5.80;1.00
14057;DHT22;7103;54.300;10.180;2023-04-01T07:38:11;5.60;1.00
14057;DHT22;7103;54.300;10.180;2023-04-01T07:48:58;5.80;1.00
14057;DHT22;7103;54.300;10.180;2023-04-01T07:51:36;5.80;1.00
14057;DHT22;7103;54.300;10.180;2023-04-01T07:54:28;5.70;1.00
14057;DHT22;7103;54.300;10.180;2023-04-01T08:05:35;5.70;99.90
14057;DHT22;7103;54.300;10.180;2023-04-01T08:08:09;5.60;99.90
14057;DHT22;7103;54.300;10.180;2023-04-01T08:10:52;5.70;99.90
14057;DHT22;7103;54.300;10.180;2023-04-01T08:16:09;5.60;99.90
14057;DHT22;7103;54.300;10.180;2023-04-01T08:23:49;5.60;99.90
14057;DHT22;7103;54.300;10.180;2023-04-01T08:26:39;5.70;99.90
14057;DHT22;7103;54.300;10.180;2023-04-01T08:29:18;5.60;99.90
14057;DHT22;7103;54.300;10.180;2023-04-01T08:32:03;5.60;99.90
14057;DHT22;7103;54.300;10.180;2023-04-01T08:34:40;5.60;99.90
14057;DHT22;7103;54.300;10.180;2023-04-01T08:37:26;5.70;99.90
14057;DHT22;7103;54.300;10.180;2023-04-01T08:48:51;5.60;99.90
14057;DHT22;7103;54.300;10.180;2023-04-01T08:59:56;5.40;99.90
14057;DHT22;7103;54.300;10.180;2023-04-01T09:05:53;5.40;99.90
14057;DHT22;7103;54.300;10.180;2023-04-01T09:27:04;5.30;99.90
14057;DHT22;7103;54.300;10.180;2023-04-01T09:33:09;5.30;99.90
14057;DHT22;7103;54.300;10.180;2023-04-01T09:38:21;5.30;99.90
14057;DHT22;7103;54.300;10.180;2023-04-01T09:43:26;5.40;99.90
14057;DHT22;7103;54.300;10.180;2023-04-01T10:01:52;5.00;99.90
14057;DHT22;7103;54.300;10.180;2023-04-01T10:22:11;5.10;99.90
14057;DHT22;7103;54.300;10.180;2023-04-01T10:53:33;4.80;99.90
14057;DHT22;7103;54.300;10.180;2023-04-01T11:02:17;4.80;99.90
14057;DHT22;7103;54.300;10.180;2023-04-01T11:21:50;4.90;99.90
14057;DHT22;7103;54.300;10.180;2023-04-01T11:33:24;4.80;99.90
14057;DHT22;7103;54.300;10.180;2023-04-01T11:44:23;4.90;99.90
14057;DHT22;7103;54.300;10.180;2023-04-01T11:53:00;4.90;99.90
14057;DHT22;7103;54.300;10.180;2023-04-01T12:01:26;4.90;99.90
14057;DHT22;7103;54.300;10.180;2023-04-01T12:04:22;4.90;99.90
14057;DHT22;7103;54.300;10.180;2023-04-01T12:10:17;4.90;99.90
14057;DHT22;7103;54.300;10.180;2023-04-01T12:18:38;5.10;99.90
14057;DHT22;7103;54.300;10.180;2023-04-01T12:24:33;5.10;99.90
14057;DHT22;7103;54.300;10.180;2023-04-01T12:38:51;5.10;99.90
14057;DHT22;7103;54.300;10.180;2023-04-01T12:41:46;5.10;99.90
14057;DHT22;7103;54.300;10.180;2023-04-01T12:44:37;5.00;99.90
14057;DHT22;7103;54.300;10.180;2023-04-01T12:50:37;5.00;99.90
14057;DHT22;7103;54.300;10.180;2023-04-01T12:55:48;5.00;99.90
14057;DHT22;7103;54.300;10.180;2023-04-01T13:03:58;5.20;99.90
14057;DHT22;7103;54.300;10.180;2023-04-01T13:09:40;5.10;99.90
14057;DHT22;7103;54.300;10.180;2023-04-01T13:12:28;5.00;99.90
14057;DHT22;7103;54.300;10.180;2023-04-01T13:15:30;5.10;99.90
14057;DHT22;7103;54.300;10.180;2023-04-01T13:21:40;5.10;99.90
14057;DHT22;7103;54.300;10.180;2023-04-01T13:24:24;5.00;99.90
14057;DHT22;7103;54.300;10.180;2023-04-01T13:40:34;5.10;82.10
14057;DHT22;7103;54.300;10.180;2023-04-01T13:43:37;5.00;90.90
14057;DHT22;7103;54.300;10.180;2023-04-01T13:49:07;4.90;76.40
14057;DHT22;7103;54.300;10.180;2023-04-01T14:00:03;4.90;46.00
14057;DHT22;7103;54.300;10.180;2023-04-01T14:11:15;4.90;18.50
14057;DHT22;7103;54.300;10.180;2023-04-01T14:48:39;4.70;1.00
14057;DHT22;7103;54.300;10.180;2023-04-01T14:51:22;4.70;1.00
14057;DHT22;7103;54.300;10.180;2023-04-01T14:54:02;4.70;1.00
14057;DHT22;7103;54.300;10.180;2023-04-01T14:57:11;4.70;1.00
14057;DHT22;7103;54.300;10.180;2023-04-01T14:59:30;4.60;1.00
14057;DHT22;7103;54.300;10.180;2023-04-01T15:02:25;4.60;1.00
14057;DHT22;7103;54.300;10.180;2023-04-01T15:08:00;4.60;1.00
14057;DHT22;7103;54.300;10.180;2023-04-01T15:10:49;4.60;1.00
14057;DHT22;7103;54.300;10.180;2023-04-01T15:22:42;4.60;1.00
14057;DHT22;7103;54.300;10.180;2023-04-01T15:41:19;4.70;1.00
14057;DHT22;7103;54.300;10.180;2023-04-01T15:43:50;4.80;1.00
14057;DHT22;7103;54.300;10.180;2023-04-01T15:46:43;4.90;1.00
14057;DHT22;7103;54.300;10.180;2023-04-01T15:49:18;4.90;1.00
14057;DHT22;7103;54.300;10.180;2023-04-01T15:52:02;4.90;1.00
14057;DHT22;7103;54.300;10.180;2023-04-01T16:03:40;4.90;1.00
14057;DHT22;7103;54.300;10.180;2023-04-01T16:06:52;4.80;1.00
14057;DHT22;7103;54.300;10.180;2023-04-01T16:09:37;5.00;1.00
14057;DHT22;7103;54.300;10.180;2023-04-01T16:23:55;4.90;1.00
14057;DHT22;7103;54.300;10.180;2023-04-01T16:26:39;5.00;1.00
14057;DHT22;7103;54.300;10.180;2023-04-01T16:29:10;5.00;1.00
14057;DHT22;7103;54.300;10.180;2023-04-01T16:37:38;5.00;1.00
14057;DHT22;7103;54.300;10.180;2023-04-01T16:46:12;5.00;1.00
14057;DHT22;7103;54.300;10.180;2023-04-01T16:49:13;4.90;1.00
14057;DHT22;7103;54.300;10.180;2023-04-01T16:51:54;4.90;1.00
14057;DHT22;7103;54.300;10.180;2023-04-01T16:54:47;4.90;1.00
14057;DHT22;7103;54.300;10.180;2023-04-01T16:59:57;4.90;1.00
14057;DHT22;7103;54.300;10.180;2023-04-01T17:02:42;4.90;1.00
14057;DHT22;7103;54.300;10.180;2023-04-01T17:05:12;4.90;1.00
14057;DHT22;7103;54.300;10.180;2023-04-01T17:13:35;4.70;1.00
14057;DHT22;7103;54.300;10.180;2023-04-01T17:25:16;4.50;1.00
14057;DHT22;7103;54.300;10.180;2023-04-01T17:27:59;4.50;1.00
14057;DHT22;7103;54.300;10.180;2023-04-01T17:30:33;4.40;1.00
14057;DHT22;7103;54.300;10.180;2023-04-01T17:33:06;4.50;1.00
14057;DHT22;7103;54.300;10.180;2023-04-01T17:36:25;4.50;1.00
14057;DHT22;7103;54.300;10.180;2023-04-01T17:44:38;4.30;1.00
14057;DHT22;7103;54.300;10.180;2023-04-01T17:47:52;4.30;1.00
14057;DHT22;7103;54.300;10.180;2023-04-01T17:56:24;4.20;1.00
14057;DHT22;7103;54.300;10.180;2023-04-01T17:59:21;4.10;1.00
14057;DHT22;7103;54.300;10.180;2023-04-01T18:02:28;4.00;1.00
14057;DHT22;7103;54.300;10.180;2023-04-01T18:07:59;4.00;1.00
14057;DHT22;7103;54.300;10.180;2023-04-01T18:10:41;4.00;1.00
14057;DHT22;7103;54.300;10.180;2023-04-01T18:22:20;3.90;1.00
14057;DHT22;7103;54.300;10.180;2023-04-01T18:25:19;3.90;1.00
14057;DHT22;7103;54.300;10.180;2023-04-01T18:34:11;3.70;1.00
14057;DHT22;7103;54.300;10.180;2023-04-01T18:39:35;3.80;1.00
14057;DHT22;7103;54.300;10.180;2023-04-01T18:47:47;3.70;1.00
14057;DHT22;7103;54.300;10.180;2023-04-01T18:52:56;3.60;1.00
14057;DHT22;7103;54.300;10.180;2023-04-01T18:55:35;3.60;1.00
14057;DHT22;7103;54.300;10.180;2023-04-01T18:58:31;3.60;1.00
14057;DHT22;7103;54.300;10.180;2023-04-01T19:01:12;3.60;1.00
14057;DHT22;7103;54.300;10.180;2023-04-01T19:06:33;3.60;1.00
14057;DHT22;7103;54.300;10.180;2023-04-01T19:12:23;3.60;1.00
14057;DHT22;7103;54.300;10.180;2023-04-01T19:15:02;3.50;1.00
14057;DHT22;7103;54.300;10.180;2023-04-01T19:25:39;3.50;1.00
14057;DHT22;7103;54.300;10.180;2023-04-01T19:31:21;3.40;1.00
14057;DHT22;7103;54.300;10.180;2023-04-01T19:37:02;3.40;1.00
14057;DHT22;7103;54.300;10.180;2023-04-01T19:43:09;3.60;1.00
14057;DHT22;7103;54.300;10.180;2023-04-01T19:51:36;3.40;1.00
14057;DHT22;7103;54.300;10.180;2023-04-01T19:57:09;3.40;1.00
14057;DHT22;7103;54.300;10.180;2023-04-01T20:17:54;3.40;1.00
14057;DHT22;7103;54.300;10.180;2023-04-01T20:20:26;3.30;1.00
14057;DHT22;7103;54.300;10.180;2023-04-01T20:23:30;3.40;1.00
14057;DHT22;7103;54.300;10.180;2023-04-01T20:26:11;3.40;1.00
14057;DHT22;7103;54.300;10.180;2023-04-01T20:28:46;3.30;1.00
14057;DHT22;7103;54.300;10.180;2023-04-01T20:31:25;3.40;1.00
14057;DHT22;7103;54.300;10.180;2023-04-01T20:36:43;3.40;1.00
14057;DHT22;7103;54.300;10.180;2023-04-01T20:42:23;3.50;1.00
14057;DHT22;7103;54.300;10.180;2023-04-01T20:48:10;3.50;1.00
14057;DHT22;7103;54.300;10.180;2023-04-01T20:50:59;3.50;1.00
14057;DHT22;7103;54.300;10.180;2023-04-01T20:53:36;3.50;1.00
14057;DHT22;7103;54.300;10.180;2023-04-01T21:05:57;3.70;1.00
14057;DHT22;7103;54.300;10.180;2023-04-01T21:29:05;3.50;1.00
14057;DHT22;7103;54.300;10.180;2023-04-01T21:34:43;3.60;1.00
14057;DHT22;7103;54.300;10.180;2023-04-01T21:37:33;3.50;1.00
14057;DHT22;7103;54.300;10.180;2023-04-01T21:40:23;3.50;1.00
14057;DHT22;7103;54.300;10.180;2023-04-01T22:06:56;3.60;1.00
14057;DHT22;7103;54.300;10.180;2023-04-01T22:09:31;3.60;1.00
14057;DHT22;7103;54.300;10.180;2023-04-01T22:20:27;3.50;1.00
14057;DHT22;7103;54.300;10.180;2023-04-01T22:28:29;3.60;1.00
14057;DHT22;7103;54.300;10.180;2023-04-01T22:31:00;3.50;1.00
14057;DHT22;7103;54.300;10.180;2023-04-01T22:33:47;3.40;1.00
14057;DHT22;7103;54.300;10.180;2023-04-01T22:39:12;3.50;1.00
14057;DHT22;7103;54.300;10.180;2023-04-01T22:47:35;3.40;1.00
14057;DHT22;7103;54.300;10.180;2023-04-01T22:49:47;3.50;1.00
14057;DHT22;7103;54.300;10.180;2023-04-01T22:52:31;3.50;1.00
14057;DHT22;7103;54.300;10.180;2023-04-01T22:55:04;3.50;1.00
14057;DHT22;7103;54.300;10.180;2023-04-01T23:00:33;3.40;1.00
14057;DHT22;7103;54.300;10.180;2023-04-01T23:05:36;3.50;1.00
14057;DHT22;7103;54.300;10.180;2023-04-01T23:11:20;3.40;1.00
14057;DHT22;7103;54.300;10.180;2023-04-01T23:16:50;3.50;1.00
14057;DHT22;7103;54.300;10.180;2023-04-01T23:22:47;3.50;1.00
14057;DHT22;7103;54.300;10.180;2023-04-01T23:33:23;3.40;1.00
14057;DHT22;7103;54.300;10.180;2023-04-01T23:36:11;3.40;1.00
14057;DHT22;7103;54.300;10.180;2023-04-01T23:38:41;3.40;1.00
14057;DHT22;7103;54.300;10.180;2023-04-01T23:41:21;3.30;1.00
14057;DHT22;7103;54.300;10.180;2023-04-01T23:44:00;3.40;1.00
14057;DHT22;7103;54.300;10.180;2023-04-01T23:46:30;3.50;1.00
14057;DHT22;7103;54.300;10.180;2023-04-01T23:48:57;3.40;1.00
14057;DHT22;7103;54.300;10.180;2023-04-01T23:51:55;3.40;1.00
14057;DHT22;7103;54.300;10.180;2023-04-01T23:54:51;3.20;1.00
14057;DHT22;7103;54.300;10.180;2023-04-01T23:57:23;3.30;1.00
